sensor_id;sensor_type;location;lat;lon;timestamp;temperature;humidity
45066;DHT22;30830;53.704;10.004;2023-02-18T00:00:26;6.10;99.90
45066;DHT22;30830;53.704;10.004;2023-02-18T00:02:51;6.10;99.90
45066;DHT22;30830;53.704;10.004;2023-02-18T00:05:17;6.10;99.90
45066;DHT22;30830;53.704;10.004;2023-02-18T00:07:43;6.10;99.90
45066;DHT22;30830;53.704;10.004;2023-02-18T00:10:13;6.10;99.90
45066;DHT22;30830;53.704;10.004;2023-02-18T00:12:39;6.10;99.90
45066;DHT22;30830;53.704;10.004;2023-02-18T00:15:05;6.10;99.90
45066;DHT22;30830;53.704;10.004;2023-02-18T00:17:31;6.10;99.90
45066;DHT22;30830;53.704;10.004;2023-02-18T00:19:56;6.10;99.90
45066;DHT22;30830;53.704;10.004;2023-02-18T00:22:22;6.20;99.90
45066;DHT22;30830;53.704;10.004;2023-02-18T00:24:48;6.10;99.90
45066;DHT22;30830;53.704;10.004;2023-02-18T00:27:14;6.10;99.90
45066;DHT22;30830;53.704;10.004;2023-02-18T00:29:40;6.10;99.90
45066;DHT22;30830;53.704;10.004;2023-02-18T00:32:05;6.10;99.90
45066;DHT22;30830;53.704;10.004;2023-02-18T00:34:31;6.10;99.90
45066;DHT22;30830;53.704;10.004;2023-02-18T00:36:57;6.10;99.90
45066;DHT22;30830;53.704;10.004;2023-02-18T00:39:23;6.10;99.90
45066;DHT22;30830;53.704;10.004;2023-02-18T00:41:48;6.10;99.90
45066;DHT22;30830;53.704;10.004;2023-02-18T00:44:14;6.00;99.90
45066;DHT22;30830;53.704;10.004;2023-02-18T00:46:39;6.00;99.90
45066;DHT22;30830;53.704;10.004;2023-02-18T00:49:05;6.00;99.90
45066;DHT22;30830;53.704;10.004;2023-02-18T00:51:31;6.00;99.90
45066;DHT22;30830;53.704;10.004;2023-02-18T00:53:57;6.00;99.90
45066;DHT22;30830;53.704;10.004;2023-02-18T00:56:22;5.90;99.90
45066;DHT22;30830;53.704;10.004;2023-02-18T00:58:48;5.90;99.90
45066;DHT22;30830;53.704;10.004;2023-02-18T01:01:14;5.90;99.90
45066;DHT22;30830;53.704;10.004;2023-02-18T01:03:41;5.90;99.90
45066;DHT22;30830;53.704;10.004;2023-02-18T01:06:08;5.90;99.90
45066;DHT22;30830;53.704;10.004;2023-02-18T01:08:35;5.90;99.90
45066;DHT22;30830;53.704;10.004;2023-02-18T01:11:02;5.90;99.90
45066;DHT22;30830;53.704;10.004;2023-02-18T01:13:28;5.90;99.90
45066;DHT22;30830;53.704;10.004;2023-02-18T01:15:54;5.90;99.90
45066;DHT22;30830;53.704;10.004;2023-02-18T01:18:20;5.90;99.90
45066;DHT22;30830;53.704;10.004;2023-02-18T01:20:46;5.80;99.90
45066;DHT22;30830;53.704;10.004;2023-02-18T01:23:12;5.80;99.90
45066;DHT22;30830;53.704;10.004;2023-02-18T01:25:38;5.80;99.90
45066;DHT22;30830;53.704;10.004;2023-02-18T01:28:05;5.80;99.90
45066;DHT22;30830;53.704;10.004;2023-02-18T01:30:30;5.80;99.90
45066;DHT22;30830;53.704;10.004;2023-02-18T01:32:57;5.70;99.90
45066;DHT22;30830;53.704;10.004;2023-02-18T01:35:23;5.70;99.90
45066;DHT22;30830;53.704;10.004;2023-02-18T01:37:49;5.70;99.90
45066;DHT22;30830;53.704;10.004;2023-02-18T01:40:19;5.70;99.90
45066;DHT22;30830;53.704;10.004;2023-02-18T01:42:47;5.70;99.90
45066;DHT22;30830;53.704;10.004;2023-02-18T01:48:21;5.60;99.90
45066;DHT22;30830;53.704;10.004;2023-02-18T01:50:56;5.60;99.90
45066;DHT22;30830;53.704;10.004;2023-02-18T01:53:30;5.50;99.90
45066;DHT22;30830;53.704;10.004;2023-02-18T01:55:59;5.50;99.90
45066;DHT22;30830;53.704;10.004;2023-02-18T01:58:27;5.50;99.90
45066;DHT22;30830;53.704;10.004;2023-02-18T02:00:52;5.50;99.90
45066;DHT22;30830;53.704;10.004;2023-02-18T02:03:18;5.50;99.90
45066;DHT22;30830;53.704;10.004;2023-02-18T02:05:43;5.50;99.90
45066;DHT22;30830;53.704;10.004;2023-02-18T02:08:09;5.50;99.90
45066;DHT22;30830;53.704;10.004;2023-02-18T02:11:01;5.40;99.90
45066;DHT22;30830;53.704;10.004;2023-02-18T02:16:11;5.40;99.90
45066;DHT22;30830;53.704;10.004;2023-02-18T02:19:27;5.40;99.90
45066;DHT22;30830;53.704;10.004;2023-02-18T02:31:30;5.40;99.90
45066;DHT22;30830;53.704;10.004;2023-02-18T02:34:22;5.40;99.90
45066;DHT22;30830;53.704;10.004;2023-02-18T02:40:00;5.40;99.90
45066;DHT22;30830;53.704;10.004;2023-02-18T02:45:28;5.40;99.90
45066;DHT22;30830;53.704;10.004;2023-02-18T02:50:39;5.40;99.90
45066;DHT22;30830;53.704;10.004;2023-02-18T02:53:26;5.40;99.90
45066;DHT22;30830;53.704;10.004;2023-02-18T02:55:52;5.40;99.90
45066;DHT22;30830;53.704;10.004;2023-02-18T02:58:20;5.50;99.90
45066;DHT22;30830;53.704;10.004;2023-02-18T03:01:26;5.50;99.90
45066;DHT22;30830;53.704;10.004;2023-02-18T03:04:25;5.50;99.90
45066;DHT22;30830;53.704;10.004;2023-02-18T03:13:03;5.50;99.90
45066;DHT22;30830;53.704;10.004;2023-02-18T03:15:40;5.50;99.90
45066;DHT22;30830;53.704;10.004;2023-02-18T03:18:26;5.50;99.90
45066;DHT22;30830;53.704;10.004;2023-02-18T03:20:59;5.50;99.90
45066;DHT22;30830;53.704;10.004;2023-02-18T03:23:31;5.50;99.90
45066;DHT22;30830;53.704;10.004;2023-02-18T03:25:59;5.50;99.90
45066;DHT22;30830;53.704;10.004;2023-02-18T03:28:27;5.50;99.90
45066;DHT22;30830;53.704;10.004;2023-02-18T03:31:06;5.60;99.90
45066;DHT22;30830;53.704;10.004;2023-02-18T03:33:42;5.60;99.90
45066;DHT22;30830;53.704;10.004;2023-02-18T03:36:09;5.60;99.90
45066;DHT22;30830;53.704;10.004;2023-02-18T03:38:47;5.60;99.90
45066;DHT22;30830;53.704;10.004;2023-02-18T03:41:15;5.60;99.90
45066;DHT22;30830;53.704;10.004;2023-02-18T03:43:48;5.70;99.90
45066;DHT22;30830;53.704;10.004;2023-02-18T03:46:14;5.70;99.90
45066;DHT22;30830;53.704;10.004;2023-02-18T03:48:39;5.70;99.90
45066;DHT22;30830;53.704;10.004;2023-02-18T03:51:05;5.70;99.90
45066;DHT22;30830;53.704;10.004;2023-02-18T03:53:30;5.80;99.90
45066;DHT22;30830;53.704;10.004;2023-02-18T03:55:56;5.80;99.90
45066;DHT22;30830;53.704;10.004;2023-02-18T03:58:21;5.80;99.90
45066;DHT22;30830;53.704;10.004;2023-02-18T04:00:47;5.90;99.90
45066;DHT22;30830;53.704;10.004;2023-02-18T04:03:12;5.90;99.90
45066;DHT22;30830;53.704;10.004;2023-02-18T04:05:38;5.90;99.90
45066;DHT22;30830;53.704;10.004;2023-02-18T04:08:03;5.90;99.90
45066;DHT22;30830;53.704;10.004;2023-02-18T04:10:30;5.90;99.90
45066;DHT22;30830;53.704;10.004;2023-02-18T04:12:55;5.90;99.90
45066;DHT22;30830;53.704;10.004;2023-02-18T04:15:21;5.90;99.90
45066;DHT22;30830;53.704;10.004;2023-02-18T04:17:46;5.90;99.90
45066;DHT22;30830;53.704;10.004;2023-02-18T04:20:12;5.80;99.90
45066;DHT22;30830;53.704;10.004;2023-02-18T04:22:38;5.90;99.90
45066;DHT22;30830;53.704;10.004;2023-02-18T04:25:04;5.80;99.90
45066;DHT22;30830;53.704;10.004;2023-02-18T04:27:29;5.80;99.90
45066;DHT22;30830;53.704;10.004;2023-02-18T04:29:55;5.80;99.90
45066;DHT22;30830;53.704;10.004;2023-02-18T04:32:20;5.70;99.90
45066;DHT22;30830;53.704;10.004;2023-02-18T04:34:46;5.70;99.90
45066;DHT22;30830;53.704;10.004;2023-02-18T04:37:12;5.70;99.90
45066;DHT22;30830;53.704;10.004;2023-02-18T04:39:37;5.60;99.90
45066;DHT22;30830;53.704;10.004;2023-02-18T04:42:03;5.60;99.90
45066;DHT22;30830;53.704;10.004;2023-02-18T04:44:36;5.50;99.90
45066;DHT22;30830;53.704;10.004;2023-02-18T04:47:02;5.50;99.90
45066;DHT22;30830;53.704;10.004;2023-02-18T04:49:28;5.50;99.90
45066;DHT22;30830;53.704;10.004;2023-02-18T04:51:53;5.40;99.90
45066;DHT22;30830;53.704;10.004;2023-02-18T04:54:19;5.40;99.90
45066;DHT22;30830;53.704;10.004;2023-02-18T04:56:44;5.40;99.90
45066;DHT22;30830;53.704;10.004;2023-02-18T04:59:10;5.40;99.90
45066;DHT22;30830;53.704;10.004;2023-02-18T05:01:36;5.40;99.90
45066;DHT22;30830;53.704;10.004;2023-02-18T05:04:01;5.40;99.90
45066;DHT22;30830;53.704;10.004;2023-02-18T05:06:27;5.40;99.90
45066;DHT22;30830;53.704;10.004;2023-02-18T05:08:53;5.50;99.90
45066;DHT22;30830;53.704;10.004;2023-02-18T05:11:18;5.40;99.90
45066;DHT22;30830;53.704;10.004;2023-02-18T05:13:44;5.40;99.90
45066;DHT22;30830;53.704;10.004;2023-02-18T05:16:09;5.40;99.90
45066;DHT22;30830;53.704;10.004;2023-02-18T05:18:35;5.40;99.90
45066;DHT22;30830;53.704;10.004;2023-02-18T05:21:01;5.40;99.90
45066;DHT22;30830;53.704;10.004;2023-02-18T05:23:26;5.40;99.90
45066;DHT22;30830;53.704;10.004;2023-02-18T05:25:53;5.40;99.90
45066;DHT22;30830;53.704;10.004;2023-02-18T05:28:19;5.40;99.90
45066;DHT22;30830;53.704;10.004;2023-02-18T05:30:44;5.40;99.90
45066;DHT22;30830;53.704;10.004;2023-02-18T05:33:10;5.40;99.90
45066;DHT22;30830;53.704;10.004;2023-02-18T05:35:35;5.40;99.90
45066;DHT22;30830;53.704;10.004;2023-02-18T05:38:01;5.40;99.90
45066;DHT22;30830;53.704;10.004;2023-02-18T05:40:26;5.40;99.90
45066;DHT22;30830;53.704;10.004;2023-02-18T05:42:52;5.40;99.90
45066;DHT22;30830;53.704;10.004;2023-02-18T05:45:17;5.40;99.90
45066;DHT22;30830;53.704;10.004;2023-02-18T05:47:43;5.40;99.90
45066;DHT22;30830;53.704;10.004;2023-02-18T05:50:09;5.30;99.90
45066;DHT22;30830;53.704;10.004;2023-02-18T05:52:34;5.30;99.90
45066;DHT22;30830;53.704;10.004;2023-02-18T05:55:00;5.30;99.90
45066;DHT22;30830;53.704;10.004;2023-02-18T05:57:25;5.30;99.90
45066;DHT22;30830;53.704;10.004;2023-02-18T05:59:51;5.30;99.90
45066;DHT22;30830;53.704;10.004;2023-02-18T06:02:16;5.30;99.90
45066;DHT22;30830;53.704;10.004;2023-02-18T06:04:42;5.30;99.90
45066;DHT22;30830;53.704;10.004;2023-02-18T06:07:08;5.30;99.90
45066;DHT22;30830;53.704;10.004;2023-02-18T06:09:33;5.30;99.90
45066;DHT22;30830;53.704;10.004;2023-02-18T06:11:59;5.30;99.90
45066;DHT22;30830;53.704;10.004;2023-02-18T06:14:24;5.30;99.90
45066;DHT22;30830;53.704;10.004;2023-02-18T06:16:50;5.30;99.90
45066;DHT22;30830;53.704;10.004;2023-02-18T06:19:15;5.30;99.90
45066;DHT22;30830;53.704;10.004;2023-02-18T06:21:41;5.20;99.90
45066;DHT22;30830;53.704;10.004;2023-02-18T06:24:06;5.20;99.90
45066;DHT22;30830;53.704;10.004;2023-02-18T06:26:32;5.20;99.90
45066;DHT22;30830;53.704;10.004;2023-02-18T06:28:58;5.20;99.90
45066;DHT22;30830;53.704;10.004;2023-02-18T06:31:24;5.20;99.90
45066;DHT22;30830;53.704;10.004;2023-02-18T06:33:49;5.20;99.90
45066;DHT22;30830;53.704;10.004;2023-02-18T06:36:15;5.10;99.90
45066;DHT22;30830;53.704;10.004;2023-02-18T06:38:42;5.10;99.90
45066;DHT22;30830;53.704;10.004;2023-02-18T06:41:09;5.10;99.90
45066;DHT22;30830;53.704;10.004;2023-02-18T06:43:35;5.10;99.90
45066;DHT22;30830;53.704;10.004;2023-02-18T06:46:00;5.10;99.90
45066;DHT22;30830;53.704;10.004;2023-02-18T06:48:26;5.10;99.90
45066;DHT22;30830;53.704;10.004;2023-02-18T06:50:52;5.10;99.90
45066;DHT22;30830;53.704;10.004;2023-02-18T06:53:17;5.10;99.90
45066;DHT22;30830;53.704;10.004;2023-02-18T06:55:44;5.10;99.90
45066;DHT22;30830;53.704;10.004;2023-02-18T06:58:10;5.10;99.90
45066;DHT22;30830;53.704;10.004;2023-02-18T07:00:36;5.10;99.90
45066;DHT22;30830;53.704;10.004;2023-02-18T07:03:02;5.10;99.90
45066;DHT22;30830;53.704;10.004;2023-02-18T07:05:28;5.10;99.90
45066;DHT22;30830;53.704;10.004;2023-02-18T07:07:53;5.10;99.90
45066;DHT22;30830;53.704;10.004;2023-02-18T07:10:19;5.00;99.90
45066;DHT22;30830;53.704;10.004;2023-02-18T07:12:45;5.00;99.90
45066;DHT22;30830;53.704;10.004;2023-02-18T07:15:11;5.00;99.90
45066;DHT22;30830;53.704;10.004;2023-02-18T07:17:36;5.00;99.90
45066;DHT22;30830;53.704;10.004;2023-02-18T07:20:03;5.00;99.90
45066;DHT22;30830;53.704;10.004;2023-02-18T07:22:29;5.00;99.90
45066;DHT22;30830;53.704;10.004;2023-02-18T07:24:54;5.10;99.90
45066;DHT22;30830;53.704;10.004;2023-02-18T07:27:21;5.10;99.90
45066;DHT22;30830;53.704;10.004;2023-02-18T07:29:46;5.10;99.90
45066;DHT22;30830;53.704;10.004;2023-02-18T07:32:13;5.10;99.90
45066;DHT22;30830;53.704;10.004;2023-02-18T07:34:39;5.10;99.90
45066;DHT22;30830;53.704;10.004;2023-02-18T07:37:05;5.10;99.90
45066;DHT22;30830;53.704;10.004;2023-02-18T07:39:35;5.10;99.90
45066;DHT22;30830;53.704;10.004;2023-02-18T07:42:03;5.10;99.90
45066;DHT22;30830;53.704;10.004;2023-02-18T07:44:29;5.10;99.90
45066;DHT22;30830;53.704;10.004;2023-02-18T07:46:55;5.10;99.90
45066;DHT22;30830;53.704;10.004;2023-02-18T07:49:21;5.10;99.90
45066;DHT22;30830;53.704;10.004;2023-02-18T07:51:47;5.10;99.90
45066;DHT22;30830;53.704;10.004;2023-02-18T07:54:13;5.10;99.90
45066;DHT22;30830;53.704;10.004;2023-02-18T07:56:39;5.10;99.90
45066;DHT22;30830;53.704;10.004;2023-02-18T07:59:05;5.10;99.90
45066;DHT22;30830;53.704;10.004;2023-02-18T08:01:31;5.10;99.90
45066;DHT22;30830;53.704;10.004;2023-02-18T08:03:56;5.10;99.90
45066;DHT22;30830;53.704;10.004;2023-02-18T08:06:28;5.10;99.90
45066;DHT22;30830;53.704;10.004;2023-02-18T08:08:55;5.10;99.90
45066;DHT22;30830;53.704;10.004;2023-02-18T08:11:20;5.20;99.90
45066;DHT22;30830;53.704;10.004;2023-02-18T08:13:47;5.20;99.90
45066;DHT22;30830;53.704;10.004;2023-02-18T08:16:13;5.20;99.90
45066;DHT22;30830;53.704;10.004;2023-02-18T08:18:38;5.20;99.90
45066;DHT22;30830;53.704;10.004;2023-02-18T08:21:04;5.20;99.90
45066;DHT22;30830;53.704;10.004;2023-02-18T08:23:29;5.20;99.90
45066;DHT22;30830;53.704;10.004;2023-02-18T08:25:55;5.30;99.90
45066;DHT22;30830;53.704;10.004;2023-02-18T08:28:22;5.30;99.90
45066;DHT22;30830;53.704;10.004;2023-02-18T08:30:50;5.30;99.90
45066;DHT22;30830;53.704;10.004;2023-02-18T08:33:17;5.30;99.90
45066;DHT22;30830;53.704;10.004;2023-02-18T08:35:43;5.30;99.90
45066;DHT22;30830;53.704;10.004;2023-02-18T08:38:09;5.40;99.90
45066;DHT22;30830;53.704;10.004;2023-02-18T08:40:35;5.40;99.90
45066;DHT22;30830;53.704;10.004;2023-02-18T08:43:00;5.40;99.90
45066;DHT22;30830;53.704;10.004;2023-02-18T08:45:26;5.40;99.90
45066;DHT22;30830;53.704;10.004;2023-02-18T08:47:52;5.40;99.90
45066;DHT22;30830;53.704;10.004;2023-02-18T08:50:18;5.40;99.90
45066;DHT22;30830;53.704;10.004;2023-02-18T08:52:45;5.50;99.90
45066;DHT22;30830;53.704;10.004;2023-02-18T08:55:11;5.50;99.90
45066;DHT22;30830;53.704;10.004;2023-02-18T08:57:36;5.50;99.90
45066;DHT22;30830;53.704;10.004;2023-02-18T09:00:02;5.50;99.90
45066;DHT22;30830;53.704;10.004;2023-02-18T09:02:28;5.50;99.90
45066;DHT22;30830;53.704;10.004;2023-02-18T09:04:54;5.50;99.90
45066;DHT22;30830;53.704;10.004;2023-02-18T09:07:19;5.60;99.90
45066;DHT22;30830;53.704;10.004;2023-02-18T09:09:45;5.60;99.90
45066;DHT22;30830;53.704;10.004;2023-02-18T09:12:10;5.60;99.90
45066;DHT22;30830;53.704;10.004;2023-02-18T09:14:36;5.60;99.90
45066;DHT22;30830;53.704;10.004;2023-02-18T09:17:01;5.60;99.90
45066;DHT22;30830;53.704;10.004;2023-02-18T09:19:27;5.70;99.90
45066;DHT22;30830;53.704;10.004;2023-02-18T09:21:52;5.70;99.90
45066;DHT22;30830;53.704;10.004;2023-02-18T09:24:19;5.70;99.90
45066;DHT22;30830;53.704;10.004;2023-02-18T09:26:45;5.60;99.90
45066;DHT22;30830;53.704;10.004;2023-02-18T09:29:11;5.60;99.90
45066;DHT22;30830;53.704;10.004;2023-02-18T09:31:36;5.60;99.90
45066;DHT22;30830;53.704;10.004;2023-02-18T09:34:04;5.60;99.90
45066;DHT22;30830;53.704;10.004;2023-02-18T09:36:31;5.60;99.90
45066;DHT22;30830;53.704;10.004;2023-02-18T09:38:57;5.60;99.90
45066;DHT22;30830;53.704;10.004;2023-02-18T09:41:28;5.60;99.90
45066;DHT22;30830;53.704;10.004;2023-02-18T09:43:58;5.60;99.90
45066;DHT22;30830;53.704;10.004;2023-02-18T09:46:32;5.70;99.90
45066;DHT22;30830;53.704;10.004;2023-02-18T09:49:02;5.70;99.90
45066;DHT22;30830;53.704;10.004;2023-02-18T09:51:28;5.70;99.90
45066;DHT22;30830;53.704;10.004;2023-02-18T09:53:54;5.70;99.90
45066;DHT22;30830;53.704;10.004;2023-02-18T09:56:26;5.70;99.90
45066;DHT22;30830;53.704;10.004;2023-02-18T09:58:53;5.70;99.90
45066;DHT22;30830;53.704;10.004;2023-02-18T10:01:46;5.80;99.90
45066;DHT22;30830;53.704;10.004;2023-02-18T10:04:22;5.80;99.90
45066;DHT22;30830;53.704;10.004;2023-02-18T10:06:49;5.80;99.90
45066;DHT22;30830;53.704;10.004;2023-02-18T10:09:20;5.80;99.90
45066;DHT22;30830;53.704;10.004;2023-02-18T10:11:51;5.80;99.90
45066;DHT22;30830;53.704;10.004;2023-02-18T10:14:19;5.70;99.90
45066;DHT22;30830;53.704;10.004;2023-02-18T10:16:46;5.70;99.90
45066;DHT22;30830;53.704;10.004;2023-02-18T10:19:27;5.70;99.90
45066;DHT22;30830;53.704;10.004;2023-02-18T10:21:54;5.70;99.90
45066;DHT22;30830;53.704;10.004;2023-02-18T10:24:35;5.70;99.90
45066;DHT22;30830;53.704;10.004;2023-02-18T10:27:05;5.80;99.90
45066;DHT22;30830;53.704;10.004;2023-02-18T10:29:31;5.80;99.90
45066;DHT22;30830;53.704;10.004;2023-02-18T10:32:06;5.70;99.90
45066;DHT22;30830;53.704;10.004;2023-02-18T10:34:41;5.70;99.90
45066;DHT22;30830;53.704;10.004;2023-02-18T10:37:35;5.70;99.90
45066;DHT22;30830;53.704;10.004;2023-02-18T10:45:36;5.80;99.90
45066;DHT22;30830;53.704;10.004;2023-02-18T10:51:14;6.00;99.90
45066;DHT22;30830;53.704;10.004;2023-02-18T10:53:43;6.00;99.90
45066;DHT22;30830;53.704;10.004;2023-02-18T10:56:34;6.00;99.90
45066;DHT22;30830;53.704;10.004;2023-02-18T10:59:08;6.10;99.90
45066;DHT22;30830;53.704;10.004;2023-02-18T11:01:34;6.10;99.90
45066;DHT22;30830;53.704;10.004;2023-02-18T11:04:17;6.10;99.90
45066;DHT22;30830;53.704;10.004;2023-02-18T11:06:46;6.20;99.90
45066;DHT22;30830;53.704;10.004;2023-02-18T11:12:34;6.20;99.90
45066;DHT22;30830;53.704;10.004;2023-02-18T11:17:46;6.30;99.90
45066;DHT22;30830;53.704;10.004;2023-02-18T11:22:46;6.30;99.90
45066;DHT22;30830;53.704;10.004;2023-02-18T11:25:33;6.30;99.90
45066;DHT22;30830;53.704;10.004;2023-02-18T11:28:00;6.30;99.90
45066;DHT22;30830;53.704;10.004;2023-02-18T11:30:36;6.40;99.90
45066;DHT22;30830;53.704;10.004;2023-02-18T11:33:30;6.40;99.90
45066;DHT22;30830;53.704;10.004;2023-02-18T11:35:57;6.50;99.90
45066;DHT22;30830;53.704;10.004;2023-02-18T11:41:19;6.50;99.90
45066;DHT22;30830;53.704;10.004;2023-02-18T11:43:48;6.50;99.90
45066;DHT22;30830;53.704;10.004;2023-02-18T11:46:20;6.50;99.90
45066;DHT22;30830;53.704;10.004;2023-02-18T11:48:46;6.60;99.90
45066;DHT22;30830;53.704;10.004;2023-02-18T11:56:30;6.70;99.90
45066;DHT22;30830;53.704;10.004;2023-02-18T11:58:56;6.80;99.90
45066;DHT22;30830;53.704;10.004;2023-02-18T12:01:45;6.80;99.90
45066;DHT22;30830;53.704;10.004;2023-02-18T12:04:32;6.80;99.90
45066;DHT22;30830;53.704;10.004;2023-02-18T12:07:21;6.80;99.90
45066;DHT22;30830;53.704;10.004;2023-02-18T12:09:49;6.90;99.90
45066;DHT22;30830;53.704;10.004;2023-02-18T12:12:26;6.90;99.90
45066;DHT22;30830;53.704;10.004;2023-02-18T12:14:54;7.10;99.90
45066;DHT22;30830;53.704;10.004;2023-02-18T12:17:48;7.20;99.90
45066;DHT22;30830;53.704;10.004;2023-02-18T12:23:25;7.40;99.90
45066;DHT22;30830;53.704;10.004;2023-02-18T12:26:15;7.50;99.90
45066;DHT22;30830;53.704;10.004;2023-02-18T12:34:04;8.00;99.90
45066;DHT22;30830;53.704;10.004;2023-02-18T12:37:02;8.20;99.90
45066;DHT22;30830;53.704;10.004;2023-02-18T12:42:55;8.30;99.90
45066;DHT22;30830;53.704;10.004;2023-02-18T12:45:37;8.30;99.90
45066;DHT22;30830;53.704;10.004;2023-02-18T12:53:45;8.40;99.90
45066;DHT22;30830;53.704;10.004;2023-02-18T12:56:36;8.40;99.90
45066;DHT22;30830;53.704;10.004;2023-02-18T12:59:35;8.40;99.90
45066;DHT22;30830;53.704;10.004;2023-02-18T13:05:01;8.40;99.90
45066;DHT22;30830;53.704;10.004;2023-02-18T13:10:43;8.30;99.90
45066;DHT22;30830;53.704;10.004;2023-02-18T13:13:16;8.30;99.90
45066;DHT22;30830;53.704;10.004;2023-02-18T13:15:47;8.20;99.90
45066;DHT22;30830;53.704;10.004;2023-02-18T13:18:23;8.20;99.90
45066;DHT22;30830;53.704;10.004;2023-02-18T13:20:53;8.10;99.90
45066;DHT22;30830;53.704;10.004;2023-02-18T13:23:26;8.00;99.90
45066;DHT22;30830;53.704;10.004;2023-02-18T13:25:59;7.90;99.90
45066;DHT22;30830;53.704;10.004;2023-02-18T13:28:50;7.80;99.90
45066;DHT22;30830;53.704;10.004;2023-02-18T13:33:58;7.30;99.90
45066;DHT22;30830;53.704;10.004;2023-02-18T13:36:43;7.10;99.90
45066;DHT22;30830;53.704;10.004;2023-02-18T13:39:16;7.00;99.90
45066;DHT22;30830;53.704;10.004;2023-02-18T13:41:45;6.90;99.90
45066;DHT22;30830;53.704;10.004;2023-02-18T13:46:53;6.80;99.90
45066;DHT22;30830;53.704;10.004;2023-02-18T13:49:31;6.60;99.90
45066;DHT22;30830;53.704;10.004;2023-02-18T13:51:58;6.50;99.90
45066;DHT22;30830;53.704;10.004;2023-02-18T13:54:33;6.50;99.90
45066;DHT22;30830;53.704;10.004;2023-02-18T13:59:40;6.20;99.90
45066;DHT22;30830;53.704;10.004;2023-02-18T14:10:02;5.90;99.90
45066;DHT22;30830;53.704;10.004;2023-02-18T14:12:39;5.80;99.90
45066;DHT22;30830;53.704;10.004;2023-02-18T14:17:47;5.60;99.90
45066;DHT22;30830;53.704;10.004;2023-02-18T14:22:52;5.40;99.90
45066;DHT22;30830;53.704;10.004;2023-02-18T14:27:50;5.30;99.90
45066;DHT22;30830;53.704;10.004;2023-02-18T14:30:25;5.30;99.90
45066;DHT22;30830;53.704;10.004;2023-02-18T14:32:58;5.20;99.90
45066;DHT22;30830;53.704;10.004;2023-02-18T14:35:34;5.20;99.90
45066;DHT22;30830;53.704;10.004;2023-02-18T14:38:17;5.20;99.90
45066;DHT22;30830;53.704;10.004;2023-02-18T14:40:48;5.20;99.90
45066;DHT22;30830;53.704;10.004;2023-02-18T14:52:02;5.10;99.90
45066;DHT22;30830;53.704;10.004;2023-02-18T14:54:29;5.20;99.90
45066;DHT22;30830;53.704;10.004;2023-02-18T14:56:59;5.20;99.90
45066;DHT22;30830;53.704;10.004;2023-02-18T14:59:29;5.20;99.90
45066;DHT22;30830;53.704;10.004;2023-02-18T15:01:56;5.20;99.90
45066;DHT22;30830;53.704;10.004;2023-02-18T15:04:24;5.20;99.90
45066;DHT22;30830;53.704;10.004;2023-02-18T15:07:02;5.20;99.90
45066;DHT22;30830;53.704;10.004;2023-02-18T15:09:28;5.20;99.90
45066;DHT22;30830;53.704;10.004;2023-02-18T15:12:03;5.20;99.90
45066;DHT22;30830;53.704;10.004;2023-02-18T15:14:32;5.20;99.90
45066;DHT22;30830;53.704;10.004;2023-02-18T15:16:59;5.20;99.90
45066;DHT22;30830;53.704;10.004;2023-02-18T15:19:27;5.30;99.90
45066;DHT22;30830;53.704;10.004;2023-02-18T15:21:56;5.30;99.90
45066;DHT22;30830;53.704;10.004;2023-02-18T15:24:40;5.20;99.90
45066;DHT22;30830;53.704;10.004;2023-02-18T15:30:18;5.20;99.90
45066;DHT22;30830;53.704;10.004;2023-02-18T15:32:49;5.20;99.90
45066;DHT22;30830;53.704;10.004;2023-02-18T15:35:16;5.20;99.90
45066;DHT22;30830;53.704;10.004;2023-02-18T15:37:51;5.20;99.90
45066;DHT22;30830;53.704;10.004;2023-02-18T15:40:17;5.10;99.90
45066;DHT22;30830;53.704;10.004;2023-02-18T15:42:47;5.10;99.90
45066;DHT22;30830;53.704;10.004;2023-02-18T15:45:29;5.10;99.90
45066;DHT22;30830;53.704;10.004;2023-02-18T15:47:56;5.10;99.90
45066;DHT22;30830;53.704;10.004;2023-02-18T15:52:51;5.20;99.90
45066;DHT22;30830;53.704;10.004;2023-02-18T15:55:39;5.20;99.90
45066;DHT22;30830;53.704;10.004;2023-02-18T15:58:11;5.30;99.90
45066;DHT22;30830;53.704;10.004;2023-02-18T16:00:56;5.30;99.90
45066;DHT22;30830;53.704;10.004;2023-02-18T16:06:27;5.20;99.90
45066;DHT22;30830;53.704;10.004;2023-02-18T16:09:25;5.30;99.90
45066;DHT22;30830;53.704;10.004;2023-02-18T16:11:56;5.30;99.90
45066;DHT22;30830;53.704;10.004;2023-02-18T16:19:57;5.30;99.90
45066;DHT22;30830;53.704;10.004;2023-02-18T16:26:07;5.20;99.90
45066;DHT22;30830;53.704;10.004;2023-02-18T16:30:29;5.20;99.90
45066;DHT22;30830;53.704;10.004;2023-02-18T16:32:55;5.20;99.90
45066;DHT22;30830;53.704;10.004;2023-02-18T16:35:23;5.20;99.90
45066;DHT22;30830;53.704;10.004;2023-02-18T16:37:50;5.20;99.90
45066;DHT22;30830;53.704;10.004;2023-02-18T16:40:34;5.30;99.90
45066;DHT22;30830;53.704;10.004;2023-02-18T16:43:05;5.30;99.90
45066;DHT22;30830;53.704;10.004;2023-02-18T16:47:58;5.30;99.90
45066;DHT22;30830;53.704;10.004;2023-02-18T16:50:27;5.30;99.90
45066;DHT22;30830;53.704;10.004;2023-02-18T16:52:53;5.20;99.90
45066;DHT22;30830;53.704;10.004;2023-02-18T16:55:21;5.20;99.90
45066;DHT22;30830;53.704;10.004;2023-02-18T16:57:48;5.20;99.90
45066;DHT22;30830;53.704;10.004;2023-02-18T17:00:16;5.20;99.90
45066;DHT22;30830;53.704;10.004;2023-02-18T17:02:45;5.20;99.90
45066;DHT22;30830;53.704;10.004;2023-02-18T17:05:21;5.20;99.90
45066;DHT22;30830;53.704;10.004;2023-02-18T17:07:47;5.20;99.90
45066;DHT22;30830;53.704;10.004;2023-02-18T17:10:14;5.10;99.90
45066;DHT22;30830;53.704;10.004;2023-02-18T17:12:40;5.10;99.90
45066;DHT22;30830;53.704;10.004;2023-02-18T17:15:20;5.10;99.90
45066;DHT22;30830;53.704;10.004;2023-02-18T17:17:48;5.10;99.90
45066;DHT22;30830;53.704;10.004;2023-02-18T17:20:14;5.10;99.90
45066;DHT22;30830;53.704;10.004;2023-02-18T17:22:40;5.10;99.90
45066;DHT22;30830;53.704;10.004;2023-02-18T17:25:13;5.10;99.90
45066;DHT22;30830;53.704;10.004;2023-02-18T17:27:40;5.00;99.90
45066;DHT22;30830;53.704;10.004;2023-02-18T17:30:07;5.00;99.90
45066;DHT22;30830;53.704;10.004;2023-02-18T17:32:32;5.00;99.90
45066;DHT22;30830;53.704;10.004;2023-02-18T17:34:58;5.00;99.90
45066;DHT22;30830;53.704;10.004;2023-02-18T17:37:23;5.00;99.90
45066;DHT22;30830;53.704;10.004;2023-02-18T17:39:49;5.00;99.90
45066;DHT22;30830;53.704;10.004;2023-02-18T17:42:14;4.90;99.90
45066;DHT22;30830;53.704;10.004;2023-02-18T17:44:41;4.90;99.90
45066;DHT22;30830;53.704;10.004;2023-02-18T17:47:06;4.90;99.90
45066;DHT22;30830;53.704;10.004;2023-02-18T17:49:32;4.90;99.90
45066;DHT22;30830;53.704;10.004;2023-02-18T17:51:57;4.80;99.90
45066;DHT22;30830;53.704;10.004;2023-02-18T17:54:24;4.80;99.90
45066;DHT22;30830;53.704;10.004;2023-02-18T17:56:49;4.80;99.90